sensor_id;sensor_type;location;lat;lon;timestamp;temperature;humidity
71117;SHT31;58775;46.992;9.518;2023-08-08T00:00:14;12.28;89.77
71117;SHT31;58775;46.992;9.518;2023-08-08T00:02:15;12.16;90.39
71117;SHT31;58775;46.992;9.518;2023-08-08T00:04:16;12.26;88.84
71117;SHT31;58775;46.992;9.518;2023-08-08T00:06:17;12.20;88.64
71117;SHT31;58775;46.992;9.518;2023-08-08T00:08:18;11.96;88.58
71117;SHT31;58775;46.992;9.518;2023-08-08T00:10:19;11.78;89.94
71117;SHT31;58775;46.992;9.518;2023-08-08T00:12:20;11.89;88.65
71117;SHT31;58775;46.992;9.518;2023-08-08T00:14:21;11.81;89.01
71117;SHT31;58775;46.992;9.518;2023-08-08T00:16:23;11.68;90.91
71117;SHT31;58775;46.992;9.518;2023-08-08T00:18:24;11.51;89.43
71117;SHT31;58775;46.992;9.518;2023-08-08T00:20:25;11.50;89.89
71117;SHT31;58775;46.992;9.518;2023-08-08T00:22:26;11.62;89.70
71117;SHT31;58775;46.992;9.518;2023-08-08T00:24:27;11.59;88.97
71117;SHT31;58775;46.992;9.518;2023-08-08T00:26:28;11.51;89.57
71117;SHT31;58775;46.992;9.518;2023-08-08T00:28:29;11.47;90.25
71117;SHT31;58775;46.992;9.518;2023-08-08T00:30:30;11.55;88.62
71117;SHT31;58775;46.992;9.518;2023-08-08T00:32:30;11.50;89.14
71117;SHT31;58775;46.992;9.518;2023-08-08T00:34:32;11.44;88.30
71117;SHT31;58775;46.992;9.518;2023-08-08T00:36:33;11.58;87.77
71117;SHT31;58775;46.992;9.518;2023-08-08T00:38:33;11.51;89.14
71117;SHT31;58775;46.992;9.518;2023-08-08T00:40:34;11.40;90.03
71117;SHT31;58775;46.992;9.518;2023-08-08T00:42:35;11.32;90.08
71117;SHT31;58775;46.992;9.518;2023-08-08T00:44:37;11.37;88.57
71117;SHT31;58775;46.992;9.518;2023-08-08T00:46:38;11.37;88.53
71117;SHT31;58775;46.992;9.518;2023-08-08T00:48:39;11.31;89.04
71117;SHT31;58775;46.992;9.518;2023-08-08T00:50:42;11.27;90.23
71117;SHT31;58775;46.992;9.518;2023-08-08T00:52:46;11.31;90.33
71117;SHT31;58775;46.992;9.518;2023-08-08T00:54:47;11.24;90.09
71117;SHT31;58775;46.992;9.518;2023-08-08T00:56:48;11.23;90.16
71117;SHT31;58775;46.992;9.518;2023-08-08T00:58:49;11.24;90.50
71117;SHT31;58775;46.992;9.518;2023-08-08T01:00:51;11.10;91.69
71117;SHT31;58775;46.992;9.518;2023-08-08T01:02:55;11.10;91.69
71117;SHT31;58775;46.992;9.518;2023-08-08T01:04:56;11.16;90.61
71117;SHT31;58775;46.992;9.518;2023-08-08T01:07:15;11.08;89.64
71117;SHT31;58775;46.992;9.518;2023-08-08T01:09:28;11.24;89.50
71117;SHT31;58775;46.992;9.518;2023-08-08T01:11:31;11.08;90.05
71117;SHT31;58775;46.992;9.518;2023-08-08T01:13:33;11.20;89.79
71117;SHT31;58775;46.992;9.518;2023-08-08T01:15:35;11.11;89.74
71117;SHT31;58775;46.992;9.518;2023-08-08T01:17:37;10.92;90.22
71117;SHT31;58775;46.992;9.518;2023-08-08T01:19:40;11.01;89.75
71117;SHT31;58775;46.992;9.518;2023-08-08T01:21:43;11.01;89.53
71117;SHT31;58775;46.992;9.518;2023-08-08T01:24:31;10.93;89.66
71117;SHT31;58775;46.992;9.518;2023-08-08T01:26:07;11.24;85.75
71117;SHT31;58775;46.992;9.518;2023-08-08T01:28:08;11.30;86.29
71117;SHT31;58775;46.992;9.518;2023-08-08T01:30:10;11.35;86.02
71117;SHT31;58775;46.992;9.518;2023-08-08T01:32:11;11.32;86.56
71117;SHT31;58775;46.992;9.518;2023-08-08T01:34:12;11.37;86.57
71117;SHT31;58775;46.992;9.518;2023-08-08T01:36:22;11.40;86.30
71117;SHT31;58775;46.992;9.518;2023-08-08T01:38:35;11.41;86.38
71117;SHT31;58775;46.992;9.518;2023-08-08T01:40:38;11.35;86.86
71117;SHT31;58775;46.992;9.518;2023-08-08T01:42:40;11.44;85.96
71117;SHT31;58775;46.992;9.518;2023-08-08T01:44:42;11.45;85.86
71117;SHT31;58775;46.992;9.518;2023-08-08T01:46:43;11.59;84.00
71117;SHT31;58775;46.992;9.518;2023-08-08T01:48:45;11.57;85.12
71117;SHT31;58775;46.992;9.518;2023-08-08T01:50:47;11.55;86.54
71117;SHT31;58775;46.992;9.518;2023-08-08T01:52:48;11.55;86.12
71117;SHT31;58775;46.992;9.518;2023-08-08T01:54:49;11.64;83.74
71117;SHT31;58775;46.992;9.518;2023-08-08T01:56:50;11.69;83.08
71117;SHT31;58775;46.992;9.518;2023-08-08T01:58:51;11.72;84.39
71117;SHT31;58775;46.992;9.518;2023-08-08T02:00:51;11.81;82.94
71117;SHT31;58775;46.992;9.518;2023-08-08T02:02:52;11.68;84.28
71117;SHT31;58775;46.992;9.518;2023-08-08T02:04:53;11.57;85.08
71117;SHT31;58775;46.992;9.518;2023-08-08T02:06:54;11.44;85.69
71117;SHT31;58775;46.992;9.518;2023-08-08T02:08:55;11.41;86.09
71117;SHT31;58775;46.992;9.518;2023-08-08T02:10:56;11.47;84.77
71117;SHT31;58775;46.992;9.518;2023-08-08T02:12:57;11.58;85.35
71117;SHT31;58775;46.992;9.518;2023-08-08T02:14:58;11.40;87.24
71117;SHT31;58775;46.992;9.518;2023-08-08T02:16:59;11.16;88.45
71117;SHT31;58775;46.992;9.518;2023-08-08T02:19:00;11.04;89.39
71117;SHT31;58775;46.992;9.518;2023-08-08T02:21:01;11.03;89.58
71117;SHT31;58775;46.992;9.518;2023-08-08T02:23:02;10.93;90.38
71117;SHT31;58775;46.992;9.518;2023-08-08T02:25:04;10.97;89.12
71117;SHT31;58775;46.992;9.518;2023-08-08T02:27:05;10.93;88.74
71117;SHT31;58775;46.992;9.518;2023-08-08T02:29:06;10.93;88.81
71117;SHT31;58775;46.992;9.518;2023-08-08T02:31:07;10.99;88.98
71117;SHT31;58775;46.992;9.518;2023-08-08T02:33:08;10.90;89.45
71117;SHT31;58775;46.992;9.518;2023-08-08T02:35:08;11.11;87.37
71117;SHT31;58775;46.992;9.518;2023-08-08T02:37:09;11.08;87.62
71117;SHT31;58775;46.992;9.518;2023-08-08T02:39:10;11.03;88.69
71117;SHT31;58775;46.992;9.518;2023-08-08T02:41:11;11.04;88.16
71117;SHT31;58775;46.992;9.518;2023-08-08T02:43:12;11.06;88.34
71117;SHT31;58775;46.992;9.518;2023-08-08T02:45:13;11.14;89.03
71117;SHT31;58775;46.992;9.518;2023-08-08T02:47:14;11.07;89.23
71117;SHT31;58775;46.992;9.518;2023-08-08T02:49:16;11.03;89.06
71117;SHT31;58775;46.992;9.518;2023-08-08T02:51:17;11.06;90.03
71117;SHT31;58775;46.992;9.518;2023-08-08T02:53:18;11.07;89.92
71117;SHT31;58775;46.992;9.518;2023-08-08T02:55:22;11.08;89.18
71117;SHT31;58775;46.992;9.518;2023-08-08T02:57:25;11.10;88.80
71117;SHT31;58775;46.992;9.518;2023-08-08T02:59:29;11.17;88.34
71117;SHT31;58775;46.992;9.518;2023-08-08T03:01:30;11.18;88.69
71117;SHT31;58775;46.992;9.518;2023-08-08T03:03:32;11.13;89.52
71117;SHT31;58775;46.992;9.518;2023-08-08T03:05:33;11.07;90.12
71117;SHT31;58775;46.992;9.518;2023-08-08T03:07:35;10.96;90.78
71117;SHT31;58775;46.992;9.518;2023-08-08T03:09:36;10.86;89.90
71117;SHT31;58775;46.992;9.518;2023-08-08T03:11:37;10.92;90.56
71117;SHT31;58775;46.992;9.518;2023-08-08T03:13:40;10.89;91.25
71117;SHT31;58775;46.992;9.518;2023-08-08T03:15:42;10.97;90.74
71117;SHT31;58775;46.992;9.518;2023-08-08T03:17:43;10.89;90.82
71117;SHT31;58775;46.992;9.518;2023-08-08T03:19:44;10.87;90.89
71117;SHT31;58775;46.992;9.518;2023-08-08T03:21:45;10.93;89.54
71117;SHT31;58775;46.992;9.518;2023-08-08T03:23:47;10.97;89.30
71117;SHT31;58775;46.992;9.518;2023-08-08T03:25:47;11.01;88.73
71117;SHT31;58775;46.992;9.518;2023-08-08T03:27:49;11.10;88.12
71117;SHT31;58775;46.992;9.518;2023-08-08T03:29:51;11.14;86.77
71117;SHT31;58775;46.992;9.518;2023-08-08T03:31:52;11.24;86.18
71117;SHT31;58775;46.992;9.518;2023-08-08T03:33:53;11.30;85.50
71117;SHT31;58775;46.992;9.518;2023-08-08T03:35:55;11.23;87.42
71117;SHT31;58775;46.992;9.518;2023-08-08T03:37:56;11.06;87.63
71117;SHT31;58775;46.992;9.518;2023-08-08T03:39:56;11.11;87.63
71117;SHT31;58775;46.992;9.518;2023-08-08T03:41:57;11.04;89.82
71117;SHT31;58775;46.992;9.518;2023-08-08T03:43:58;11.06;89.95
71117;SHT31;58775;46.992;9.518;2023-08-08T03:46:00;11.08;89.96
71117;SHT31;58775;46.992;9.518;2023-08-08T03:48:01;11.00;90.47
71117;SHT31;58775;46.992;9.518;2023-08-08T03:50:03;10.92;90.43
71117;SHT31;58775;46.992;9.518;2023-08-08T03:52:05;10.87;90.24
71117;SHT31;58775;46.992;9.518;2023-08-08T03:54:06;10.89;89.81
71117;SHT31;58775;46.992;9.518;2023-08-08T03:56:07;10.92;89.90
71117;SHT31;58775;46.992;9.518;2023-08-08T03:58:08;10.83;89.68
71117;SHT31;58775;46.992;9.518;2023-08-08T04:00:10;10.79;89.28
71117;SHT31;58775;46.992;9.518;2023-08-08T04:02:15;10.80;88.92
71117;SHT31;58775;46.992;9.518;2023-08-08T04:04:16;10.92;88.51
71117;SHT31;58775;46.992;9.518;2023-08-08T04:06:17;10.96;88.58
71117;SHT31;58775;46.992;9.518;2023-08-08T04:08:18;11.03;88.69
71117;SHT31;58775;46.992;9.518;2023-08-08T04:10:19;11.08;88.65
71117;SHT31;58775;46.992;9.518;2023-08-08T04:12:20;11.08;90.00
71117;SHT31;58775;46.992;9.518;2023-08-08T04:14:21;11.07;89.81
71117;SHT31;58775;46.992;9.518;2023-08-08T04:16:22;10.97;90.38
71117;SHT31;58775;46.992;9.518;2023-08-08T04:18:23;10.84;89.56
71117;SHT31;58775;46.992;9.518;2023-08-08T04:20:24;10.80;89.87
71117;SHT31;58775;46.992;9.518;2023-08-08T04:22:25;10.86;89.32
71117;SHT31;58775;46.992;9.518;2023-08-08T04:24:26;10.84;88.78
71117;SHT31;58775;46.992;9.518;2023-08-08T04:26:27;10.99;88.07
71117;SHT31;58775;46.992;9.518;2023-08-08T04:28:28;11.03;87.76
71117;SHT31;58775;46.992;9.518;2023-08-08T04:30:29;11.04;88.17
71117;SHT31;58775;46.992;9.518;2023-08-08T04:32:30;11.14;88.23
71117;SHT31;58775;46.992;9.518;2023-08-08T04:34:31;11.08;89.80
71117;SHT31;58775;46.992;9.518;2023-08-08T04:36:32;11.04;89.11
71117;SHT31;58775;46.992;9.518;2023-08-08T04:38:34;11.00;89.77
71117;SHT31;58775;46.992;9.518;2023-08-08T04:40:35;11.06;89.52
71117;SHT31;58775;46.992;9.518;2023-08-08T04:42:36;11.08;90.33
71117;SHT31;58775;46.992;9.518;2023-08-08T04:44:37;11.20;90.15
71117;SHT31;58775;46.992;9.518;2023-08-08T04:46:38;11.17;90.95
71117;SHT31;58775;46.992;9.518;2023-08-08T04:48:39;11.28;90.32
71117;SHT31;58775;46.992;9.518;2023-08-08T04:50:40;11.41;89.54
71117;SHT31;58775;46.992;9.518;2023-08-08T04:52:41;11.32;90.91
71117;SHT31;58775;46.992;9.518;2023-08-08T04:54:42;11.30;90.68
71117;SHT31;58775;46.992;9.518;2023-08-08T04:56:44;11.26;91.03
71117;SHT31;58775;46.992;9.518;2023-08-08T04:58:46;11.41;90.31
71117;SHT31;58775;46.992;9.518;2023-08-08T05:00:47;11.44;90.63
71117;SHT31;58775;46.992;9.518;2023-08-08T05:02:48;11.42;90.51
71117;SHT31;58775;46.992;9.518;2023-08-08T05:04:49;11.41;89.99
71117;SHT31;58775;46.992;9.518;2023-08-08T05:06:50;11.59;89.24
71117;SHT31;58775;46.992;9.518;2023-08-08T05:08:52;11.57;88.97
71117;SHT31;58775;46.992;9.518;2023-08-08T05:10:53;11.71;88.94
71117;SHT31;58775;46.992;9.518;2023-08-08T05:12:54;11.74;88.58
71117;SHT31;58775;46.992;9.518;2023-08-08T05:14:55;11.81;87.40
71117;SHT31;58775;46.992;9.518;2023-08-08T05:16:56;11.88;86.86
71117;SHT31;58775;46.992;9.518;2023-08-08T05:18:57;11.98;85.87
71117;SHT31;58775;46.992;9.518;2023-08-08T05:20:58;12.05;84.43
71117;SHT31;58775;46.992;9.518;2023-08-08T05:22:59;12.16;85.44
71117;SHT31;58775;46.992;9.518;2023-08-08T05:25:01;12.22;84.82
71117;SHT31;58775;46.992;9.518;2023-08-08T05:27:02;12.33;84.88
71117;SHT31;58775;46.992;9.518;2023-08-08T05:29:04;12.56;84.94
71117;SHT31;58775;46.992;9.518;2023-08-08T05:31:05;12.84;83.86
71117;SHT31;58775;46.992;9.518;2023-08-08T05:33:06;13.72;80.52
71117;SHT31;58775;46.992;9.518;2023-08-08T05:35:07;13.91;77.98
71117;SHT31;58775;46.992;9.518;2023-08-08T05:37:09;13.99;76.70
71117;SHT31;58775;46.992;9.518;2023-08-08T05:39:10;14.02;76.78
71117;SHT31;58775;46.992;9.518;2023-08-08T05:41:11;14.07;75.89
71117;SHT31;58775;46.992;9.518;2023-08-08T05:43:12;14.03;75.54
71117;SHT31;58775;46.992;9.518;2023-08-08T05:45:17;14.13;75.96
71117;SHT31;58775;46.992;9.518;2023-08-08T05:47:18;14.24;76.18
71117;SHT31;58775;46.992;9.518;2023-08-08T05:49:19;14.35;76.28
71117;SHT31;58775;46.992;9.518;2023-08-08T05:51:20;14.30;77.64
71117;SHT31;58775;46.992;9.518;2023-08-08T05:53:21;14.18;79.23
71117;SHT31;58775;46.992;9.518;2023-08-08T05:55:22;14.34;78.96
71117;SHT31;58775;46.992;9.518;2023-08-08T05:57:24;14.24;78.33
71117;SHT31;58775;46.992;9.518;2023-08-08T05:59:24;14.14;78.91
71117;SHT31;58775;46.992;9.518;2023-08-08T06:01:26;14.42;78.50
71117;SHT31;58775;46.992;9.518;2023-08-08T06:03:27;14.68;76.39
71117;SHT31;58775;46.992;9.518;2023-08-08T06:05:28;14.57;76.76
71117;SHT31;58775;46.992;9.518;2023-08-08T06:07:29;14.51;78.71
71117;SHT31;58775;46.992;9.518;2023-08-08T06:09:30;14.79;76.41
71117;SHT31;58775;46.992;9.518;2023-08-08T06:11:33;15.03;75.65
71117;SHT31;58775;46.992;9.518;2023-08-08T06:13:34;15.23;75.01
71117;SHT31;58775;46.992;9.518;2023-08-08T06:15:35;15.13;76.71
71117;SHT31;58775;46.992;9.518;2023-08-08T06:17:36;15.05;76.36
71117;SHT31;58775;46.992;9.518;2023-08-08T06:19:36;15.18;76.61
71117;SHT31;58775;46.992;9.518;2023-08-08T06:21:37;15.37;76.07
71117;SHT31;58775;46.992;9.518;2023-08-08T06:23:38;15.50;75.09
71117;SHT31;58775;46.992;9.518;2023-08-08T06:25:39;15.42;75.68
71117;SHT31;58775;46.992;9.518;2023-08-08T06:27:40;15.73;73.37
71117;SHT31;58775;46.992;9.518;2023-08-08T06:29:42;16.01;73.79
71117;SHT31;58775;46.992;9.518;2023-08-08T06:31:43;15.98;73.40
71117;SHT31;58775;46.992;9.518;2023-08-08T06:33:44;15.71;74.51
71117;SHT31;58775;46.992;9.518;2023-08-08T06:35:45;15.35;77.39
71117;SHT31;58775;46.992;9.518;2023-08-08T06:37:46;15.50;73.16
71117;SHT31;58775;46.992;9.518;2023-08-08T06:39:47;15.81;72.00
71117;SHT31;58775;46.992;9.518;2023-08-08T06:41:48;16.09;71.81
71117;SHT31;58775;46.992;9.518;2023-08-08T06:43:54;16.25;72.18
71117;SHT31;58775;46.992;9.518;2023-08-08T06:45:55;16.33;71.61
71117;SHT31;58775;46.992;9.518;2023-08-08T06:47:56;16.33;70.07
71117;SHT31;58775;46.992;9.518;2023-08-08T06:49:57;16.41;71.38
71117;SHT31;58775;46.992;9.518;2023-08-08T06:51:59;16.48;71.09
71117;SHT31;58775;46.992;9.518;2023-08-08T06:54:00;16.52;69.72
71117;SHT31;58775;46.992;9.518;2023-08-08T06:56:01;16.45;69.54
71117;SHT31;58775;46.992;9.518;2023-08-08T06:58:02;16.47;69.77
71117;SHT31;58775;46.992;9.518;2023-08-08T07:00:04;16.62;71.70
71117;SHT31;58775;46.992;9.518;2023-08-08T07:02:06;16.72;70.06
71117;SHT31;58775;46.992;9.518;2023-08-08T07:04:07;16.91;67.66
71117;SHT31;58775;46.992;9.518;2023-08-08T07:06:08;17.00;68.21
71117;SHT31;58775;46.992;9.518;2023-08-08T07:08:09;16.89;68.72
71117;SHT31;58775;46.992;9.518;2023-08-08T07:10:10;17.07;68.40
71117;SHT31;58775;46.992;9.518;2023-08-08T07:12:12;17.37;68.36
71117;SHT31;58775;46.992;9.518;2023-08-08T07:14:14;17.27;71.62
71117;SHT31;58775;46.992;9.518;2023-08-08T07:16:15;17.27;72.32
71117;SHT31;58775;46.992;9.518;2023-08-08T07:18:16;17.13;71.41
71117;SHT31;58775;46.992;9.518;2023-08-08T07:20:17;17.35;70.35
71117;SHT31;58775;46.992;9.518;2023-08-08T07:22:18;17.72;67.93
71117;SHT31;58775;46.992;9.518;2023-08-08T07:24:19;18.09;66.44
71117;SHT31;58775;46.992;9.518;2023-08-08T07:26:21;18.12;67.15
71117;SHT31;58775;46.992;9.518;2023-08-08T07:28:23;18.42;66.84
71117;SHT31;58775;46.992;9.518;2023-08-08T07:30:26;18.09;68.08
71117;SHT31;58775;46.992;9.518;2023-08-08T07:32:27;18.12;69.22
71117;SHT31;58775;46.992;9.518;2023-08-08T07:34:28;17.41;71.14
71117;SHT31;58775;46.992;9.518;2023-08-08T07:36:29;17.92;68.80
71117;SHT31;58775;46.992;9.518;2023-08-08T07:38:32;17.64;70.50
71117;SHT31;58775;46.992;9.518;2023-08-08T07:40:34;17.85;68.80
71117;SHT31;58775;46.992;9.518;2023-08-08T07:42:35;17.74;68.95
71117;SHT31;58775;46.992;9.518;2023-08-08T07:44:36;18.36;67.96
71117;SHT31;58775;46.992;9.518;2023-08-08T07:46:38;18.94;65.52
71117;SHT31;58775;46.992;9.518;2023-08-08T07:48:39;18.25;68.75
71117;SHT31;58775;46.992;9.518;2023-08-08T07:50:41;18.28;69.54
71117;SHT31;58775;46.992;9.518;2023-08-08T07:52:42;18.87;67.07
71117;SHT31;58775;46.992;9.518;2023-08-08T07:54:43;19.18;63.90
71117;SHT31;58775;46.992;9.518;2023-08-08T07:56:44;19.63;60.88
71117;SHT31;58775;46.992;9.518;2023-08-08T07:58:45;19.92;60.72
71117;SHT31;58775;46.992;9.518;2023-08-08T08:00:46;19.28;64.71
71117;SHT31;58775;46.992;9.518;2023-08-08T08:02:47;19.86;63.53
71117;SHT31;58775;46.992;9.518;2023-08-08T08:04:48;20.51;60.72
71117;SHT31;58775;46.992;9.518;2023-08-08T08:06:49;20.88;60.11
71117;SHT31;58775;46.992;9.518;2023-08-08T08:08:50;21.30;60.12
71117;SHT31;58775;46.992;9.518;2023-08-08T08:10:51;21.63;58.08
71117;SHT31;58775;46.992;9.518;2023-08-08T08:12:52;21.66;57.27
71117;SHT31;58775;46.992;9.518;2023-08-08T08:14:58;21.09;59.20
71117;SHT31;58775;46.992;9.518;2023-08-08T08:16:59;21.90;58.19
71117;SHT31;58775;46.992;9.518;2023-08-08T08:19:01;22.22;55.72
71117;SHT31;58775;46.992;9.518;2023-08-08T08:21:02;22.44;53.97
71117;SHT31;58775;46.992;9.518;2023-08-08T08:23:03;22.44;54.96
71117;SHT31;58775;46.992;9.518;2023-08-08T08:25:05;22.82;55.06
71117;SHT31;58775;46.992;9.518;2023-08-08T08:27:08;23.10;54.19
71117;SHT31;58775;46.992;9.518;2023-08-08T08:29:09;23.30;53.47
71117;SHT31;58775;46.992;9.518;2023-08-08T08:31:10;23.70;53.19
71117;SHT31;58775;46.992;9.518;2023-08-08T08:33:11;23.16;54.33
71117;SHT31;58775;46.992;9.518;2023-08-08T08:35:12;23.78;52.13
71117;SHT31;58775;46.992;9.518;2023-08-08T08:37:13;24.26;51.07
71117;SHT31;58775;46.992;9.518;2023-08-08T08:39:14;24.53;51.27
71117;SHT31;58775;46.992;9.518;2023-08-08T08:41:18;24.94;51.02
71117;SHT31;58775;46.992;9.518;2023-08-08T08:43:21;24.59;50.85
71117;SHT31;58775;46.992;9.518;2023-08-08T08:45:22;24.93;50.15
71117;SHT31;58775;46.992;9.518;2023-08-08T08:47:25;25.07;49.43
71117;SHT31;58775;46.992;9.518;2023-08-08T08:49:31;24.11;48.40
71117;SHT31;58775;46.992;9.518;2023-08-08T08:51:32;24.55;48.42
71117;SHT31;58775;46.992;9.518;2023-08-08T08:53:33;24.56;52.30
71117;SHT31;58775;46.992;9.518;2023-08-08T08:55:35;24.79;51.10
71117;SHT31;58775;46.992;9.518;2023-08-08T08:57:36;24.23;48.45
71117;SHT31;58775;46.992;9.518;2023-08-08T08:59:38;24.33;49.73
71117;SHT31;58775;46.992;9.518;2023-08-08T09:01:39;24.26;50.45
71117;SHT31;58775;46.992;9.518;2023-08-08T09:03:41;24.53;51.53
71117;SHT31;58775;46.992;9.518;2023-08-08T09:05:44;24.57;50.45
71117;SHT31;58775;46.992;9.518;2023-08-08T09:07:45;24.06;49.37
71117;SHT31;58775;46.992;9.518;2023-08-08T09:09:46;23.94;50.61
71117;SHT31;58775;46.992;9.518;2023-08-08T09:11:49;24.05;53.18
71117;SHT31;58775;46.992;9.518;2023-08-08T09:13:50;24.26;53.34
71117;SHT31;58775;46.992;9.518;2023-08-08T09:15:52;24.80;49.78
71117;SHT31;58775;46.992;9.518;2023-08-08T09:17:54;24.77;48.38
71117;SHT31;58775;46.992;9.518;2023-08-08T09:19:55;25.10;50.48
71117;SHT31;58775;46.992;9.518;2023-08-08T09:21:56;25.54;47.89
71117;SHT31;58775;46.992;9.518;2023-08-08T09:23:57;25.68;46.15
71117;SHT31;58775;46.992;9.518;2023-08-08T09:25:58;24.91;46.89
71117;SHT31;58775;46.992;9.518;2023-08-08T09:27:59;25.66;47.98
71117;SHT31;58775;46.992;9.518;2023-08-08T09:30:00;25.97;50.30
71117;SHT31;58775;46.992;9.518;2023-08-08T09:32:05;25.88;48.13
71117;SHT31;58775;46.992;9.518;2023-08-08T09:34:06;25.92;46.84
71117;SHT31;58775;46.992;9.518;2023-08-08T09:36:07;26.29;43.59
71117;SHT31;58775;46.992;9.518;2023-08-08T09:38:08;26.19;44.37
71117;SHT31;58775;46.992;9.518;2023-08-08T09:40:10;25.54;45.79
71117;SHT31;58775;46.992;9.518;2023-08-08T09:42:13;25.97;47.53
71117;SHT31;58775;46.992;9.518;2023-08-08T09:44:14;26.23;45.67
71117;SHT31;58775;46.992;9.518;2023-08-08T09:46:15;26.41;43.39
71117;SHT31;58775;46.992;9.518;2023-08-08T09:48:19;26.76;46.50
71117;SHT31;58775;46.992;9.518;2023-08-08T09:50:20;26.67;45.68
71117;SHT31;58775;46.992;9.518;2023-08-08T09:52:21;26.71;46.54
71117;SHT31;58775;46.992;9.518;2023-08-08T09:54:23;26.90;46.27
71117;SHT31;58775;46.992;9.518;2023-08-08T09:56:25;26.77;46.40
71117;SHT31;58775;46.992;9.518;2023-08-08T09:58:26;26.87;45.73
71117;SHT31;58775;46.992;9.518;2023-08-08T10:00:28;27.49;45.00
71117;SHT31;58775;46.992;9.518;2023-08-08T10:02:31;26.65;47.99
71117;SHT31;58775;46.992;9.518;2023-08-08T10:04:33;27.60;45.51
71117;SHT31;58775;46.992;9.518;2023-08-08T10:06:34;26.41;49.37
71117;SHT31;58775;46.992;9.518;2023-08-08T10:08:35;27.79;46.84
71117;SHT31;58775;46.992;9.518;2023-08-08T10:10:39;27.45;43.91
71117;SHT31;58775;46.992;9.518;2023-08-08T10:12:41;26.81;49.24
71117;SHT31;58775;46.992;9.518;2023-08-08T10:14:44;27.46;45.83
71117;SHT31;58775;46.992;9.518;2023-08-08T10:16:47;27.90;44.88
71117;SHT31;58775;46.992;9.518;2023-08-08T10:18:59;27.55;45.02
71117;SHT31;58775;46.992;9.518;2023-08-08T10:21:04;28.28;44.93
71117;SHT31;58775;46.992;9.518;2023-08-08T10:23:06;28.33;42.57
71117;SHT31;58775;46.992;9.518;2023-08-08T10:25:08;27.14;45.21
71117;SHT31;58775;46.992;9.518;2023-08-08T10:27:09;27.79;43.56
71117;SHT31;58775;46.992;9.518;2023-08-08T10:29:17;28.10;42.29
71117;SHT31;58775;46.992;9.518;2023-08-08T10:31:21;28.50;39.48
71117;SHT31;58775;46.992;9.518;2023-08-08T10:33:27;28.65;42.01
71117;SHT31;58775;46.992;9.518;2023-08-08T10:35:36;28.85;40.46
71117;SHT31;58775;46.992;9.518;2023-08-08T10:37:39;28.40;40.21
71117;SHT31;58775;46.992;9.518;2023-08-08T10:39:59;28.62;40.97
71117;SHT31;58775;46.992;9.518;2023-08-08T10:42:03;27.60;40.17
71117;SHT31;58775;46.992;9.518;2023-08-08T10:44:08;28.20;41.25
71117;SHT31;58775;46.992;9.518;2023-08-08T10:46:11;28.67;41.61
71117;SHT31;58775;46.992;9.518;2023-08-08T10:48:12;29.18;40.63
71117;SHT31;58775;46.992;9.518;2023-08-08T10:50:15;29.10;39.89
71117;SHT31;58775;46.992;9.518;2023-08-08T10:52:16;29.02;38.47
71117;SHT31;58775;46.992;9.518;2023-08-08T10:54:25;29.03;41.08
71117;SHT31;58775;46.992;9.518;2023-08-08T10:56:30;28.44;41.09
71117;SHT31;58775;46.992;9.518;2023-08-08T10:58:40;28.68;40.44
71117;SHT31;58775;46.992;9.518;2023-08-08T11:00:41;28.36;40.68
71117;SHT31;58775;46.992;9.518;2023-08-08T11:02:44;28.43;41.41
71117;SHT31;58775;46.992;9.518;2023-08-08T11:04:46;28.40;42.91
71117;SHT31;58775;46.992;9.518;2023-08-08T11:06:47;27.74;45.63
71117;SHT31;58775;46.992;9.518;2023-08-08T11:08:50;27.90;43.04
71117;SHT31;58775;46.992;9.518;2023-08-08T11:10:52;27.74;42.01
71117;SHT31;58775;46.992;9.518;2023-08-08T11:12:59;27.52;44.10
71117;SHT31;58775;46.992;9.518;2023-08-08T11:15:00;26.70;49.24
71117;SHT31;58775;46.992;9.518;2023-08-08T11:17:01;27.36;44.21
71117;SHT31;58775;46.992;9.518;2023-08-08T11:19:03;26.98;45.17
71117;SHT31;58775;46.992;9.518;2023-08-08T11:21:10;27.26;45.41
71117;SHT31;58775;46.992;9.518;2023-08-08T11:23:12;27.22;44.08
71117;SHT31;58775;46.992;9.518;2023-08-08T11:25:14;25.71;50.43
71117;SHT31;58775;46.992;9.518;2023-08-08T11:27:15;24.86;44.30
71117;SHT31;58775;46.992;9.518;2023-08-08T11:29:17;24.74;51.12
71117;SHT31;58775;46.992;9.518;2023-08-08T11:31:19;25.44;47.30
71117;SHT31;58775;46.992;9.518;2023-08-08T11:33:21;25.64;45.30
71117;SHT31;58775;46.992;9.518;2023-08-08T11:35:24;25.24;43.75
71117;SHT31;58775;46.992;9.518;2023-08-08T11:37:25;24.77;51.34
71117;SHT31;58775;46.992;9.518;2023-08-08T11:39:27;24.76;46.46
71117;SHT31;58775;46.992;9.518;2023-08-08T11:41:29;24.56;44.46
71117;SHT31;58775;46.992;9.518;2023-08-08T11:43:31;25.17;46.54
71117;SHT31;58775;46.992;9.518;2023-08-08T11:45:32;25.28;45.64
71117;SHT31;58775;46.992;9.518;2023-08-08T11:47:33;24.87;44.81
71117;SHT31;58775;46.992;9.518;2023-08-08T11:49:42;25.25;45.20
71117;SHT31;58775;46.992;9.518;2023-08-08T11:51:44;25.23;46.33
71117;SHT31;58775;46.992;9.518;2023-08-08T11:53:53;25.49;45.96
71117;SHT31;58775;46.992;9.518;2023-08-08T11:55:56;26.19;47.53
71117;SHT31;58775;46.992;9.518;2023-08-08T11:57:58;25.42;44.91
71117;SHT31;58775;46.992;9.518;2023-08-08T12:00:07;25.42;47.90
71117;SHT31;58775;46.992;9.518;2023-08-08T12:02:13;25.33;46.55
71117;SHT31;58775;46.992;9.518;2023-08-08T12:04:14;26.00;46.87
71117;SHT31;58775;46.992;9.518;2023-08-08T12:06:17;26.63;42.95
71117;SHT31;58775;46.992;9.518;2023-08-08T12:08:19;26.16;43.68
71117;SHT31;58775;46.992;9.518;2023-08-08T12:10:21;26.17;44.84
71117;SHT31;58775;46.992;9.518;2023-08-08T12:12:23;26.33;43.69
71117;SHT31;58775;46.992;9.518;2023-08-08T12:14:24;26.22;45.28
71117;SHT31;58775;46.992;9.518;2023-08-08T12:16:28;26.26;45.27
71117;SHT31;58775;46.992;9.518;2023-08-08T12:18:30;26.27;42.18
71117;SHT31;58775;46.992;9.518;2023-08-08T12:20:32;26.26;45.10
71117;SHT31;58775;46.992;9.518;2023-08-08T12:22:33;26.02;45.85
71117;SHT31;58775;46.992;9.518;2023-08-08T12:24:34;26.22;44.25
71117;SHT31;58775;46.992;9.518;2023-08-08T12:26:35;25.89;44.61
71117;SHT31;58775;46.992;9.518;2023-08-08T12:28:37;26.47;43.19
71117;SHT31;58775;46.992;9.518;2023-08-08T12:30:38;25.86;43.84
71117;SHT31;58775;46.992;9.518;2023-08-08T12:32:39;26.32;46.94
71117;SHT31;58775;46.992;9.518;2023-08-08T12:34:40;25.52;43.37
71117;SHT31;58775;46.992;9.518;2023-08-08T12:36:41;26.00;45.31
71117;SHT31;58775;46.992;9.518;2023-08-08T12:38:43;25.57;49.23
71117;SHT31;58775;46.992;9.518;2023-08-08T12:40:45;26.16;47.09
71117;SHT31;58775;46.992;9.518;2023-08-08T12:42:47;25.78;45.44
71117;SHT31;58775;46.992;9.518;2023-08-08T12:44:48;25.45;45.66
71117;SHT31;58775;46.992;9.518;2023-08-08T12:46:52;25.55;46.69
71117;SHT31;58775;46.992;9.518;2023-08-08T12:48:53;24.72;49.89